Climatologie pour Saint-Brevin les Pins
Jour • Résumé pour juillet 23, 2017 Système :  Métrique    Anglais   Mixte
« - 1 jour
+ 1 jour »
Jour Semaine Mois Année Personnalisé
  Maximum : Minimum : Moyenne :
Température sous abri : -17.8 °C -9.2 °C -8.3 °C
Point de rosée : -17.8 °C -11.2 °C -9.6 °C
Humidité : Humidity % 75 % 86 %
Vitesse du vent : 0 km/h 0 km/h 14.8 km/h
Rafale : 0 km/h - -
Direction :- - West
Pression : 0 hPa 34347.6 hPa -
Précipitations : 167.64 mm    
Historical Graphs
 
 
Tableau de données pour juillet 23, 2017
Heure Tempé Pt rosée Pression Vent Vitesse Rafale Humidité Taux pluie (/hr) Soleil
-17.8 °C -17.8 °C 0 hPa Calm     Humidity % 0 mm SolarRadiationWatts/m^2 W/m2 Conditions
00:00 -8.7 °C -10.9 °C 34395 hPa West 15.6 km/h 36.2 km/h 77 % 0 mm 0 W/m2
00:10 -8.7 °C -10.8 °C 34395 hPa NW 12.9 km/h 41.4 km/h 78 % 0 mm 0 W/m2
00:15 -8.6 °C -10.8 °C 34395 hPa NW 7.7 km/h 41.4 km/h 77 % 0 mm 0 W/m2
00:25 -8.7 °C -11.2 °C 34395 hPa WNW 12.9 km/h 41.4 km/h 75 % 0 mm 0 W/m2
00:30 -8.7 °C -11.1 °C 34395 hPa NW 5.1 km/h 38.8 km/h 76 % 0 mm 0 W/m2
00:35 -8.7 °C -11.1 °C 34395 hPa NW 10.3 km/h 41.4 km/h 76 % 0 mm 0 W/m2
00:40 -8.7 °C -10.9 °C 34395 hPa WNW 20.8 km/h 44.1 km/h 77 % 0 mm 0 W/m2
00:45 -8.7 °C -10.9 °C 34395 hPa WNW 23.3 km/h 44.1 km/h 77 % 0 mm 0 W/m2
00:50 -8.7 °C -10.8 °C 34395 hPa WNW 25.9 km/h 41.4 km/h 78 % 0 mm 0 W/m2
00:55 -8.7 °C -10.8 °C 34405.1 hPa West 20.8 km/h 41.4 km/h 78 % 0 mm 0 W/m2
01:00 -8.7 °C -10.8 °C 34395 hPa WSW 23.3 km/h 54.4 km/h 78 % 0 mm 0 W/m2
01:10 -8.7 °C -11.2 °C 34395 hPa WNW 20.8 km/h 46.7 km/h 75 % 0 mm 0 W/m2
01:15 -8.7 °C -11.1 °C 34395 hPa NW 28.5 km/h 46.7 km/h 76 % 0 mm 0 W/m2
01:20 -8.7 °C -10.9 °C 34405.1 hPa WNW 20.8 km/h 41.4 km/h 77 % 0 mm 0 W/m2
01:25 -8.8 °C -11 °C 34405.1 hPa West 12.9 km/h 41.4 km/h 77 % 0 mm 0 W/m2
01:30 -8.8 °C -10.9 °C 34405.1 hPa West 23.3 km/h 44.1 km/h 78 % 0 mm 0 W/m2
01:35 -8.7 °C -10.9 °C 34405.1 hPa NW 28.5 km/h 44.1 km/h 78 % 0 mm 0 W/m2
01:40 -8.7 °C -10.7 °C 34405.1 hPa NNW 12.9 km/h 36.2 km/h 79 % 0 mm 0 W/m2
01:45 -8.7 °C -10.8 °C 34405.1 hPa NW 15.6 km/h 36.2 km/h 78 % 0 mm 0 W/m2
01:50 -8.7 °C -10.9 °C 34405.1 hPa West 12.9 km/h 38.8 km/h 77 % 0 mm 0 W/m2
01:55 -8.7 °C -10.9 °C 34405.1 hPa NW 15.6 km/h 44.1 km/h 77 % 0 mm 0 W/m2
02:00 -8.7 °C -10.9 °C 34405.1 hPa WNW 25.9 km/h 44.1 km/h 77 % 0 mm 0 W/m2
02:05 -8.8 °C -10.9 °C 34405.1 hPa West 18.2 km/h 44.1 km/h 78 % 0 mm 0 W/m2
02:10 -8.7 °C -10.9 °C 34405.1 hPa West 12.9 km/h 44.1 km/h 78 % 0 mm 0 W/m2
02:15 -8.7 °C -10.8 °C 34405.1 hPa WNW 2.6 km/h 33.6 km/h 78 % 0 mm 0 W/m2
02:20 -8.7 °C -10.6 °C 34405.1 hPa West 15.6 km/h 38.8 km/h 80 % 0 mm 0 W/m2
02:25 -8.7 °C -10.6 °C 34405.1 hPa West 7.7 km/h 38.8 km/h 81 % 0 mm 0 W/m2
02:30 -8.7 °C -10.5 °C 34405.1 hPa NW 25.9 km/h 44.1 km/h 81 % 0 mm 0 W/m2
02:35 -8.7 °C -10.7 °C 34405.1 hPa WNW 7.7 km/h 44.1 km/h 80 % 0 mm 0 W/m2
02:40 -8.8 °C -10.7 °C 34405.1 hPa West 20.8 km/h 41.4 km/h 80 % 0 mm 0 W/m2
02:45 -8.8 °C -10.8 °C 34405.1 hPa WNW 15.6 km/h 41.4 km/h 80 % 0 mm 0 W/m2
02:50 -8.8 °C -10.8 °C 34418.7 hPa WNW 15.6 km/h 38.8 km/h 80 % 0 mm 0 W/m2
02:55 -8.8 °C -10.8 °C 34418.7 hPa WNW 12.9 km/h 36.2 km/h 79 % 0 mm 0 W/m2
03:00 -8.8 °C -10.8 °C 34418.7 hPa WNW 25.9 km/h 36.2 km/h 79 % 0 mm 0 W/m2
03:05 -8.8 °C -10.8 °C 34418.7 hPa WSW 10.3 km/h 36.2 km/h 79 % 0 mm 0 W/m2
03:15 -8.8 °C -10.8 °C 34418.7 hPa West 12.9 km/h 36.2 km/h 79 % 0 mm 0 W/m2
03:20 -8.8 °C -10.7 °C 34418.7 hPa WNW 18.2 km/h 36.2 km/h 80 % 0 mm 0 W/m2
03:25 -8.8 °C -10.7 °C 34418.7 hPa WNW 10.3 km/h 31.1 km/h 80 % 0 mm 0 W/m2
03:30 -8.8 °C -10.7 °C 34418.7 hPa WNW 15.6 km/h 44.1 km/h 80 % 0 mm 0 W/m2
03:35 -8.8 °C -10.8 °C 34418.7 hPa West 33.6 km/h 44.1 km/h 79 % 0 mm 0 W/m2
03:40 -8.8 °C -11.1 °C 34418.7 hPa West 25.9 km/h 44.1 km/h 77 % 0 mm 0 W/m2
03:45 -8.8 °C -11.1 °C 34418.7 hPa West 15.6 km/h 46.7 km/h 77 % 0 mm 0 W/m2
03:50 -8.8 °C -11 °C 34418.7 hPa West 12.9 km/h 46.7 km/h 78 % 0 mm 0 W/m2
03:55 -8.9 °C -11 °C 34418.7 hPa WNW 12.9 km/h 33.6 km/h 78 % 0 mm 0 W/m2
04:00 -8.9 °C -10.9 °C 34418.7 hPa West 20.8 km/h 31.1 km/h 79 % 0 mm 0 W/m2
04:05 -8.9 °C -10.9 °C 34418.7 hPa WNW 7.7 km/h 33.6 km/h 79 % 0 mm 0 W/m2
04:10 -8.9 °C -10.9 °C 34418.7 hPa West 10.3 km/h 33.6 km/h 79 % 0 mm 0 W/m2
04:15 -8.8 °C -10.8 °C 34418.7 hPa WNW 31.1 km/h 41.4 km/h 80 % 0 mm 0 W/m2
04:20 -8.8 °C -10.9 °C 34418.7 hPa WNW 15.6 km/h 41.4 km/h 79 % 0 mm 0 W/m2
04:25 -8.9 °C -10.8 °C 34418.7 hPa West 25.9 km/h 31.1 km/h 80 % 0 mm 0 W/m2
04:30 -8.9 °C -10.8 °C 34418.7 hPa WSW 18.2 km/h 28.5 km/h 81 % 0 mm 0 W/m2
04:35 -8.9 °C -10.7 °C 34418.7 hPa WNW 5.1 km/h 28.5 km/h 81 % 0 mm 0 W/m2
04:40 -8.8 °C -10.6 °C 34418.7 hPa West 25.9 km/h 28.5 km/h 81 % 0 mm 0 W/m2
04:45 -8.8 °C -10.7 °C 34418.7 hPa West 18.2 km/h 31.1 km/h 80 % 0 mm 0 W/m2
04:50 -8.8 °C -10.7 °C 34418.7 hPa West 20.8 km/h 31.1 km/h 80 % 0 mm 0 W/m2
04:55 -8.8 °C -10.7 °C 34418.7 hPa WNW 25.9 km/h 33.6 km/h 80 % 0 mm 0 W/m2
05:00 -8.9 °C -10.8 °C 34418.7 hPa WNW 7.7 km/h 33.6 km/h 80 % 0 mm 0 W/m2
05:05 -9 °C -10.8 °C 34418.7 hPa WNW 12.9 km/h 31.1 km/h 81 % 0 mm 0 W/m2
05:10 -9.1 °C -10.9 °C 34418.7 hPa NW 12.9 km/h 25.9 km/h 81 % 0 mm 0 W/m2
05:15 -9.2 °C -10.9 °C 34418.7 hPa WNW 7.7 km/h 28.5 km/h 82 % 0 mm 0 W/m2
05:20 -9.1 °C -10.8 °C 34418.7 hPa Calm   33.6 km/h 82 % 0 mm 0 W/m2
05:25 -9.2 °C -10.9 °C 34418.7 hPa WNW 7.7 km/h 33.6 km/h 82 % 0 mm 0 W/m2
05:30 -9.2 °C -10.9 °C 34418.7 hPa WNW 10.3 km/h 23.3 km/h 81 % 0 mm 0 W/m2
05:35 -9.2 °C -10.9 °C 34418.7 hPa WNW 2.6 km/h 23.3 km/h 81 % 0 mm 0 W/m2
05:40 -9.2 °C -10.9 °C 34418.7 hPa WNW 12.9 km/h 20.8 km/h 82 % 0 mm 0 W/m2
05:45 -9.2 °C -10.9 °C 34418.7 hPa West 12.9 km/h 28.5 km/h 82 % 0 mm 0 W/m2
05:50 -9.1 °C -10.9 °C 34418.7 hPa WNW 10.3 km/h 31.1 km/h 81 % 0 mm 0 W/m2
05:55 -9.1 °C -10.9 °C 34418.7 hPa NW 12.9 km/h 31.1 km/h 80 % 0 mm 0 W/m2
06:00 -8.9 °C -10.9 °C 34428.8 hPa West 20.8 km/h 33.6 km/h 80 % 0 mm 0 W/m2
06:05 -8.8 °C -10.9 °C 34428.8 hPa WNW 15.6 km/h 33.6 km/h 79 % 0 mm 0 W/m2
06:10 -8.8 °C -10.9 °C 34428.8 hPa WNW 10.3 km/h 28.5 km/h 78 % 0 mm 0 W/m2
06:15 -8.8 °C -10.9 °C 34428.8 hPa West 18.2 km/h 31.1 km/h 78 % 0 mm 0 W/m2
06:20 -8.8 °C -10.9 °C 34428.8 hPa West 20.8 km/h 31.1 km/h 78 % 0 mm 0 W/m2
06:30 -8.9 °C -10.9 °C 34428.8 hPa WSW 12.9 km/h 31.1 km/h 79 % 0 mm 0 W/m2
06:35 -8.9 °C -10.9 °C 34428.8 hPa WSW 20.8 km/h 28.5 km/h 79 % 0 mm 0 W/m2
06:40 -8.9 °C -10.8 °C 34428.8 hPa SW 7.7 km/h 28.5 km/h 80 % 0 mm 0 W/m2
06:45 -8.9 °C -11 °C 34428.8 hPa Calm   28.5 km/h 78 % 0 mm 5 W/m2
06:50 -8.9 °C -11 °C 34428.8 hPa WNW 25.9 km/h 28.5 km/h 78 % 0 mm 7 W/m2
06:55 -8.8 °C -11 °C 34428.8 hPa NW 25.9 km/h 36.2 km/h 78 % 0 mm 9 W/m2
07:00 -8.8 °C -10.9 °C 34428.8 hPa WNW 12.9 km/h 36.2 km/h 79 % 0 mm 11 W/m2
07:05 -8.9 °C -10.8 °C 34428.8 hPa WSW 12.9 km/h 25.9 km/h 80 % 0 mm 14 W/m2
07:10 -9 °C -10.8 °C 34428.8 hPa WNW 18.2 km/h 25.9 km/h 81 % 0 mm 18 W/m2
07:15 -8.9 °C -10.9 °C 34428.8 hPa WNW 10.3 km/h 33.6 km/h 80 % 0 mm 26 W/m2
07:20 -8.9 °C -10.9 °C 34428.8 hPa WSW 7.7 km/h 33.6 km/h 79 % 0 mm 39 W/m2
07:25 -8.8 °C -10.8 °C 34428.8 hPa WNW 18.2 km/h 31.1 km/h 79 % 0 mm 49 W/m2
07:30 -8.7 °C -10.8 °C 34442.4 hPa West 15.6 km/h 33.6 km/h 78 % 0 mm 54 W/m2
07:35 -8.6 °C -10.7 °C 34442.4 hPa NW 12.9 km/h 33.6 km/h 78 % 0 mm 63 W/m2
07:40 -8.5 °C -10.7 °C 34442.4 hPa West 7.7 km/h 33.6 km/h 78 % 0 mm 77 W/m2
07:45 -8.4 °C -10.6 °C 34442.4 hPa West 12.9 km/h 38.8 km/h 78 % 0 mm 67 W/m2
07:50 -8.4 °C -10.7 °C 34442.4 hPa WNW 12.9 km/h 38.8 km/h 77 % 0 mm 70 W/m2
07:55 -8.5 °C -10.7 °C 34442.4 hPa WNW 7.7 km/h 31.1 km/h 77 % 0 mm 67 W/m2
08:00 -8.5 °C -10.8 °C 34442.4 hPa NW 20.8 km/h 25.9 km/h 77 % 0 mm 72 W/m2
08:05 -8.5 °C -10.9 °C 34442.4 hPa WNW 12.9 km/h 28.5 km/h 76 % 0 mm 88 W/m2
08:10 -8.5 °C -10.8 °C 34442.4 hPa West 23.3 km/h 33.6 km/h 76 % 0 mm 102 W/m2
08:15 -8.4 °C -10.8 °C 34442.4 hPa WNW 20.8 km/h 36.2 km/h 76 % 0 mm 107 W/m2
08:20 -8.4 °C -10.8 °C 34442.4 hPa WNW 12.9 km/h 36.2 km/h 76 % 0 mm 105 W/m2
08:25 -8.4 °C -10.8 °C 34452.6 hPa West 5.1 km/h 33.6 km/h 76 % 0 mm 107 W/m2
08:30 -8.4 °C -10.7 °C 34452.6 hPa West 12.9 km/h 28.5 km/h 76 % 0 mm 206 W/m2
08:35 -8.2 °C -10.6 °C 34452.6 hPa West 10.3 km/h 20.8 km/h 76 % 0 mm 172 W/m2
08:40 -8.2 °C -10.7 °C 34452.6 hPa West 15.6 km/h 31.1 km/h 75 % 0 mm 213 W/m2
08:45 -8.2 °C -10.6 °C 34452.6 hPa West 12.9 km/h 31.1 km/h 75 % 0 mm 141 W/m2
08:50 -8.1 °C -10.5 °C 34452.6 hPa WNW 5.1 km/h 23.3 km/h 76 % 0 mm 181 W/m2
08:55 -7.9 °C -10.3 °C 34452.6 hPa WSW 12.9 km/h 31.1 km/h 76 % 0 mm 153 W/m2
09:00 -7.9 °C -10.3 °C 34452.6 hPa WNW 23.3 km/h 31.1 km/h 76 % 0 mm 374 W/m2
09:05 -7.7 °C -10.3 °C 34452.6 hPa West 5.1 km/h 28.5 km/h 75 % 0 mm 279 W/m2
09:15 -7.8 °C -10.3 °C 34452.6 hPa West 10.3 km/h 25.9 km/h 75 % 0 mm 232 W/m2
09:20 -7.8 °C -10.3 °C 34452.6 hPa NW 23.3 km/h 25.9 km/h 75 % 0 mm 179 W/m2
09:25 -7.8 °C -10.3 °C 34452.6 hPa WNW 20.8 km/h 23.3 km/h 75 % 0 mm 221 W/m2
09:30 -7.7 °C -10.1 °C 34452.6 hPa Calm   25.9 km/h 76 % 0 mm 288 W/m2
09:35 -7.6 °C -10 °C 34452.6 hPa West 10.3 km/h 25.9 km/h 76 % 0 mm 209 W/m2
09:40 -7.6 °C -10.1 °C 34452.6 hPa West 23.3 km/h 28.5 km/h 75 % 0 mm 149 W/m2
09:45 -7.8 °C -10.3 °C 34462.7 hPa NW 10.3 km/h 31.1 km/h 75 % 0 mm 83 W/m2
09:50 -7.9 °C -10.3 °C 34452.6 hPa WNW 12.9 km/h 31.1 km/h 76 % 0 mm 214 W/m2
09:55 -7.8 °C -10.1 °C 34462.7 hPa West 10.3 km/h 31.1 km/h 77 % 0 mm 281 W/m2
10:00 -7.6 °C -9.9 °C 34452.6 hPa WNW 7.7 km/h 31.1 km/h 77 % 0 mm 174 W/m2
10:05 -7.6 °C -10 °C 34452.6 hPa SW 12.9 km/h 31.1 km/h 76 % 0 mm 260 W/m2
10:10 -7.5 °C -9.9 °C 34452.6 hPa WSW 18.2 km/h 31.1 km/h 76 % 0 mm 251 W/m2
10:15 -7.4 °C -9.7 °C 34452.6 hPa West 12.9 km/h 33.6 km/h 77 % 0 mm 290 W/m2
10:20 -7.4 °C -9.9 °C 34452.6 hPa SW 7.7 km/h 33.6 km/h 75 % 0 mm 332 W/m2
10:25 -7.3 °C -9.8 °C 34452.6 hPa WSW 12.9 km/h 31.1 km/h 75 % 0 mm 346 W/m2
10:35 -7.1 °C -9.7 °C 34452.6 hPa West 10.3 km/h 31.1 km/h 75 % 0 mm 362 W/m2
10:40 -7.2 °C -9.7 °C 34452.6 hPa WNW 18.2 km/h 25.9 km/h 75 % 0 mm 292 W/m2
10:45 -7.3 °C -9.8 °C 34452.6 hPa SW 18.2 km/h 38.8 km/h 75 % 0 mm 178 W/m2
10:50 -7.4 °C -9.9 °C 34452.6 hPa SSW 15.6 km/h 38.8 km/h 76 % 0 mm 174 W/m2
10:55 -7.6 °C -9.9 °C 34452.6 hPa SW 5.1 km/h 31.1 km/h 76 % 0 mm 213 W/m2
11:00 -7.6 °C -9.8 °C 34452.6 hPa West 10.3 km/h 36.2 km/h 77 % 0 mm 213 W/m2
11:05 -7.5 °C -9.8 °C 34452.6 hPa SW 23.3 km/h 36.2 km/h 77 % 0 mm 139 W/m2
11:10 -7.6 °C -9.7 °C 34452.6 hPa WNW 15.6 km/h 33.6 km/h 78 % 0 mm 156 W/m2
11:15 -7.8 °C -9.7 °C 34452.6 hPa SSW 10.3 km/h 31.1 km/h 80 % 0 mm 137 W/m2
11:20 -7.9 °C -9.6 °C 34452.6 hPa West 7.7 km/h 28.5 km/h 82 % 0 mm 134 W/m2
11:25 -7.8 °C -9.6 °C 34452.6 hPa WNW 5.1 km/h 31.1 km/h 82 % 0 mm 178 W/m2
11:30 -7.8 °C -9.4 °C 34452.6 hPa WSW 10.3 km/h 31.1 km/h 84 % 0 mm 135 W/m2
11:35 -7.9 °C -9.3 °C 34452.6 hPa WNW 5.1 km/h 18.2 km/h 85 % 0 mm 148 W/m2
11:40 -7.9 °C -9.6 °C 34452.6 hPa WSW 12.9 km/h 36.2 km/h 82 % 0 mm 183 W/m2
11:45 -7.8 °C -9.9 °C 34452.6 hPa West 18.2 km/h 36.2 km/h 79 % 0 mm 209 W/m2
11:50 -7.8 °C -9.9 °C 34452.6 hPa WNW 12.9 km/h 33.6 km/h 79 % 0 mm 151 W/m2
11:55 -7.9 °C -9.9 °C 34452.6 hPa SW 15.6 km/h 33.6 km/h 79 % 0 mm 77 W/m2
12:00 -8 °C -9.8 °C 34452.6 hPa West 20.8 km/h 28.5 km/h 81 % 0 mm 102 W/m2
12:05 -8.2 °C -9.8 °C 34452.6 hPa WSW 18.2 km/h 25.9 km/h 83 % 0 mm 241 W/m2
12:10 -8 °C -9.4 °C 34452.6 hPa SW 7.7 km/h 23.3 km/h 85 % 0 mm 248 W/m2
12:15 -7.8 °C -9.4 °C 34452.6 hPa West 20.8 km/h 23.3 km/h 83 % 0 mm 246 W/m2
12:20 -7.9 °C -9.6 °C 34462.7 hPa WSW 5.1 km/h 31.1 km/h 82 % 0 mm 211 W/m2
12:25 -8.1 °C -9.5 °C 34462.7 hPa WSW 25.9 km/h 33.6 km/h 85 % 0 mm 165 W/m2
12:30 -8.3 °C -9.5 °C 34452.6 hPa WSW 18.2 km/h 38.8 km/h 87 % 0 mm 209 W/m2
12:35 -8.4 °C -9.6 °C 34452.6 hPa WSW 7.7 km/h 38.8 km/h 88 % 0 mm 148 W/m2
12:40 -8.5 °C -9.5 °C 34452.6 hPa WSW 7.7 km/h 28.5 km/h 89 % 0 mm 195 W/m2
12:45 -8.5 °C -9.4 °C 34452.6 hPa WNW 5.1 km/h 28.5 km/h 90 % 0 mm 181 W/m2
12:50 -8.5 °C -9.3 °C 34452.6 hPa WSW 12.9 km/h 28.5 km/h 91 % 0 mm 118 W/m2
12:55 -8.6 °C -9.3 °C 34452.6 hPa South 7.7 km/h 25.9 km/h 92 % 0 mm 218 W/m2
13:00 -8.4 °C -9.1 °C 34452.6 hPa SSW 10.3 km/h 25.9 km/h 93 % 0 mm 165 W/m2
13:05 -8.5 °C -9.1 °C 34452.6 hPa SW 7.7 km/h 28.5 km/h 93 % 0 mm 183 W/m2
13:10 -8.5 °C -9.1 °C 34452.6 hPa South 23.3 km/h 28.5 km/h 93 % 7.62 mm 202 W/m2
13:15 -8.5 °C -9 °C 34442.4 hPa South 2.6 km/h 25.9 km/h 94 % 12.7 mm 197 W/m2
13:20 -8.4 °C -9 °C 34442.4 hPa Calm   25.9 km/h 94 % 12.7 mm 183 W/m2
13:25 -8.5 °C -9 °C 34442.4 hPa SW 12.9 km/h 25.9 km/h 94 % 12.7 mm 149 W/m2
13:30 -8.6 °C -9.1 °C 34442.4 hPa SSW 12.9 km/h 25.9 km/h 94 % 20.32 mm 204 W/m2
13:35 -8.6 °C -9.1 °C 34442.4 hPa SSW 20.8 km/h 25.9 km/h 94 % 33.02 mm 237 W/m2
13:40 -8.6 °C -9.1 °C 34428.8 hPa SSE 23.3 km/h 23.3 km/h 94 % 33.02 mm 148 W/m2
13:45 -8.6 °C -9 °C 34428.8 hPa South 7.7 km/h 31.1 km/h 95 % 38.1 mm 176 W/m2
13:50 -8.4 °C -8.9 °C 34428.8 hPa SSW 15.6 km/h 31.1 km/h 95 % 38.1 mm 149 W/m2
13:55 -8.5 °C -8.9 °C 34428.8 hPa SSW 15.6 km/h 33.6 km/h 95 % 38.1 mm 174 W/m2
14:00 -8.5 °C -8.9 °C 34428.8 hPa SW 12.9 km/h 33.6 km/h 95 % 45.72 mm 165 W/m2
14:05 -8.5 °C -8.9 °C 34428.8 hPa SSW 12.9 km/h 28.5 km/h 95 % 45.72 mm 97 W/m2
14:10 -8.6 °C -9 °C 34428.8 hPa SSW 23.3 km/h 25.9 km/h 95 % 38.1 mm 93 W/m2
14:15 -8.5 °C -8.9 °C 34418.7 hPa South 28.5 km/h 28.5 km/h 95 % 38.1 mm 125 W/m2
14:20 -8.5 °C -8.9 °C 34418.7 hPa SW 15.6 km/h 28.5 km/h 95 % 45.72 mm 109 W/m2
14:30 -8.4 °C -8.9 °C 34418.7 hPa South 20.8 km/h 31.1 km/h 95 % 50.8 mm 123 W/m2
14:35 -8.4 °C -8.8 °C 34405.1 hPa South 28.5 km/h 31.1 km/h 96 % 50.8 mm 169 W/m2
14:40 -8.4 °C -8.8 °C 34405.1 hPa South 18.2 km/h 31.1 km/h 96 % 58.42 mm 139 W/m2
14:45 -8.4 °C -8.7 °C 34395 hPa SSE 12.9 km/h 44.1 km/h 96 % 45.72 mm 188 W/m2
14:50 -8.3 °C -8.7 °C 34395 hPa South 10.3 km/h 44.1 km/h 96 % 50.8 mm 104 W/m2
14:55 -8.3 °C -8.6 °C 34395 hPa SSW 10.3 km/h 38.8 km/h 96 % 58.42 mm 97 W/m2
15:00 -8.2 °C -8.6 °C 34395 hPa SSW 10.3 km/h 36.2 km/h 96 % 58.42 mm 113 W/m2
15:05 -8.2 °C -8.5 °C 34384.8 hPa SSW 12.9 km/h 36.2 km/h 96 % 71.12 mm 100 W/m2
15:10 -8.1 °C -8.4 °C 34384.8 hPa SW 28.5 km/h 33.6 km/h 96 % 76.2 mm 113 W/m2
15:15 -7.9 °C -8.2 °C 34384.8 hPa WSW 20.8 km/h 41.4 km/h 97 % 83.82 mm 102 W/m2
15:20 -7.7 °C -7.9 °C 34384.8 hPa NW 10.3 km/h 41.4 km/h 97 % 83.82 mm 171 W/m2
15:25 -7.6 °C -7.9 °C 34384.8 hPa WNW 25.9 km/h 38.8 km/h 97 % 83.82 mm 163 W/m2
15:30 -7.6 °C -7.8 °C 34384.8 hPa West 25.9 km/h 41.4 km/h 97 % 71.12 mm 186 W/m2
15:35 -7.6 °C -7.8 °C 34384.8 hPa West 20.8 km/h 41.4 km/h 97 % 58.42 mm 227 W/m2
15:40 -7.4 °C -7.7 °C 34384.8 hPa WNW 18.2 km/h 38.8 km/h 97 % 58.42 mm 207 W/m2
15:45 -7.4 °C -7.7 °C 34384.8 hPa WNW 18.2 km/h 38.8 km/h 97 % 50.8 mm 216 W/m2
15:50 -7.4 °C -7.7 °C 34371.3 hPa West 7.7 km/h 33.6 km/h 97 % 50.8 mm 250 W/m2
15:55 -7.3 °C -7.6 °C 34371.3 hPa WSW 33.6 km/h 38.8 km/h 97 % 45.72 mm 302 W/m2
16:00 -7.3 °C -7.5 °C 34371.3 hPa WSW 25.9 km/h 38.8 km/h 97 % 38.1 mm 318 W/m2
16:05 -7.2 °C -7.4 °C 34371.3 hPa West 23.3 km/h 36.2 km/h 97 % 25.4 mm 422 W/m2
16:10 -7.2 °C -7.4 °C 34371.3 hPa West 7.7 km/h 38.8 km/h 97 % 12.7 mm 311 W/m2
16:15 -7.3 °C -7.6 °C 34371.3 hPa West 18.2 km/h 38.8 km/h 97 % 12.7 mm 364 W/m2
16:20 -7.2 °C -7.5 °C 34371.3 hPa NW 15.6 km/h 46.7 km/h 97 % 7.62 mm 218 W/m2
16:25 -7.3 °C -7.6 °C 34371.3 hPa West 7.7 km/h 46.7 km/h 97 % 0 mm 260 W/m2
16:30 -7.3 °C -7.6 °C 34371.3 hPa WNW 10.3 km/h 41.4 km/h 97 % 0 mm 199 W/m2
16:40 -7.3 °C -7.6 °C 34371.3 hPa West 15.6 km/h 38.8 km/h 97 % 0 mm 225 W/m2
16:45 -7.3 °C -7.6 °C 34371.3 hPa WSW 28.5 km/h 36.2 km/h 97 % 0 mm 165 W/m2
16:50 -7.3 °C -7.6 °C 34371.3 hPa WNW 7.7 km/h 36.2 km/h 97 % 0 mm 146 W/m2
16:55 -7.3 °C -7.6 °C 34371.3 hPa WNW 18.2 km/h 33.6 km/h 97 % 0 mm 149 W/m2
17:00 -7.3 °C -7.6 °C 34371.3 hPa SW 7.7 km/h 33.6 km/h 97 % 0 mm 120 W/m2
17:05 -7.4 °C -7.8 °C 34371.3 hPa West 18.2 km/h 38.8 km/h 96 % 0 mm 206 W/m2
17:10 -7.4 °C -7.7 °C 34361.1 hPa West 7.7 km/h 38.8 km/h 97 % 0 mm 144 W/m2
17:15 -7.3 °C -7.6 °C 34361.1 hPa WSW 18.2 km/h 38.8 km/h 97 % 0 mm 230 W/m2
17:20 -7.4 °C -7.7 °C 34371.3 hPa West 18.2 km/h 46.7 km/h 97 % 0 mm 186 W/m2
17:25 -7.4 °C -7.8 °C 34361.1 hPa SW 18.2 km/h 46.7 km/h 96 % 0 mm 171 W/m2
17:30 -7.4 °C -7.8 °C 34361.1 hPa WNW 15.6 km/h 36.2 km/h 96 % 0 mm 142 W/m2
17:35 -7.4 °C -7.8 °C 34361.1 hPa WNW 25.9 km/h 36.2 km/h 96 % 0 mm 209 W/m2
17:40 -7.4 °C -7.7 °C 34361.1 hPa WSW 12.9 km/h 31.1 km/h 97 % 0 mm 153 W/m2
17:45 -7.4 °C -7.8 °C 34361.1 hPa Calm   31.1 km/h 96 % 0 mm 120 W/m2
17:50 -7.4 °C -7.8 °C 34361.1 hPa WSW 18.2 km/h 38.8 km/h 96 % 0 mm 148 W/m2
17:55 -7.4 °C -7.8 °C 34361.1 hPa West 20.8 km/h 51.8 km/h 96 % 0 mm 155 W/m2
18:00 -7.5 °C -7.8 °C 34361.1 hPa West 28.5 km/h 51.8 km/h 96 % 0 mm 148 W/m2
18:05 -7.5 °C -7.9 °C 34361.1 hPa WNW 25.9 km/h 38.8 km/h 95 % 0 mm 102 W/m2
18:10 -7.6 °C -8.1 °C 34361.1 hPa NW 33.6 km/h 44.1 km/h 95 % 0 mm 76 W/m2
18:15 -7.6 °C -8.1 °C 34361.1 hPa West 31.1 km/h 44.1 km/h 95 % 0 mm 83 W/m2
18:20 -7.6 °C -8.1 °C 34361.1 hPa WNW 18.2 km/h 36.2 km/h 95 % 0 mm 77 W/m2
18:25 -7.6 °C -8.1 °C 34361.1 hPa West 23.3 km/h 36.2 km/h 95 % 0 mm 109 W/m2
18:30 -7.6 °C -8.1 °C 34361.1 hPa West 15.6 km/h 41.4 km/h 95 % 0 mm 135 W/m2
18:35 -7.6 °C -8.1 °C 34361.1 hPa WNW 15.6 km/h 41.4 km/h 95 % 0 mm 127 W/m2
18:40 -7.6 °C -8.1 °C 34361.1 hPa NNW 12.9 km/h 41.4 km/h 95 % 0 mm 83 W/m2
18:45 -7.6 °C -8.1 °C 34361.1 hPa West 12.9 km/h 41.4 km/h 95 % 0 mm 90 W/m2
18:50 -7.7 °C -8.1 °C 34361.1 hPa SW 18.2 km/h 44.1 km/h 95 % 0 mm 62 W/m2
18:55 -7.7 °C -8.1 °C 34361.1 hPa West 28.5 km/h 44.1 km/h 95 % 0 mm 67 W/m2
19:05 -7.7 °C -8.2 °C 34361.1 hPa North 12.9 km/h 38.8 km/h 95 % 0 mm 62 W/m2
19:10 -7.7 °C -8.3 °C 34361.1 hPa NW 18.2 km/h 38.8 km/h 94 % 0 mm 67 W/m2
19:15 -7.8 °C -8.3 °C 34361.1 hPa WNW 33.6 km/h 38.8 km/h 94 % 0 mm 42 W/m2
19:20 -7.8 °C -8.3 °C 34347.6 hPa WNW 7.7 km/h 49.2 km/h 94 % 0 mm 46 W/m2
19:25 -7.8 °C -8.3 °C 34361.1 hPa NW 28.5 km/h 49.2 km/h 94 % 0 mm 77 W/m2
19:30 -7.8 °C -8.3 °C 34361.1 hPa NW 25.9 km/h 46.7 km/h 94 % 0 mm 49 W/m2
19:35 -7.8 °C -8.3 °C 34361.1 hPa WNW 10.3 km/h 46.7 km/h 94 % 0 mm 79 W/m2
19:40 -7.8 °C -8.3 °C 34361.1 hPa WNW 23.3 km/h 49.2 km/h 94 % 0 mm 62 W/m2
19:45 -7.8 °C -8.3 °C 34361.1 hPa WNW 15.6 km/h 49.2 km/h 94 % 0 mm 28 W/m2
19:50 -7.8 °C -8.4 °C 34361.1 hPa West 23.3 km/h 49.2 km/h 94 % 0 mm 35 W/m2
19:55 -7.8 °C -8.4 °C 34361.1 hPa WNW 25.9 km/h 44.1 km/h 94 % 0 mm 46 W/m2
20:00 -7.8 °C -8.4 °C 34361.1 hPa WNW 25.9 km/h 44.1 km/h 94 % 0 mm 28 W/m2
20:05 -7.9 °C -8.3 °C 34361.1 hPa WNW 10.3 km/h 44.1 km/h 95 % 0 mm 33 W/m2
20:10 -7.9 °C -8.3 °C 34361.1 hPa West 23.3 km/h 44.1 km/h 95 % 0 mm 51 W/m2
20:15 -7.9 °C -8.4 °C 34347.6 hPa NW 18.2 km/h 38.8 km/h 94 % 0 mm 25 W/m2
20:20 -7.9 °C -8.3 °C 34347.6 hPa WNW 25.9 km/h 38.8 km/h 95 % 0 mm 14 W/m2
20:30 -7.9 °C -8.4 °C 34347.6 hPa WSW 7.7 km/h 46.7 km/h 95 % 0 mm 37 W/m2
20:35 -7.9 °C -8.4 °C 34347.6 hPa WNW 7.7 km/h 31.1 km/h 95 % 7.62 mm 44 W/m2
20:40 -7.9 °C -8.4 °C 34347.6 hPa NW 10.3 km/h 33.6 km/h 95 % 7.62 mm 21 W/m2
20:45 -8 °C -8.3 °C 34361.1 hPa WSW 15.6 km/h 33.6 km/h 96 % 7.62 mm 21 W/m2
20:50 -8 °C -8.4 °C 34347.6 hPa West 18.2 km/h 31.1 km/h 96 % 7.62 mm 18 W/m2
20:55 -8 °C -8.4 °C 34347.6 hPa NW 12.9 km/h 31.1 km/h 96 % 7.62 mm 21 W/m2
21:00 -8.1 °C -8.4 °C 34347.6 hPa NW 10.3 km/h 36.2 km/h 96 % 7.62 mm 16 W/m2
21:05 -8.1 °C -8.4 °C 34347.6 hPa West 33.6 km/h 36.2 km/h 96 % 7.62 mm 14 W/m2
21:10 -8.1 °C -8.5 °C 34347.6 hPa NW 23.3 km/h 36.2 km/h 96 % 12.7 mm 12 W/m2
21:15 -8.2 °C -8.5 °C 34361.1 hPa West 12.9 km/h 36.2 km/h 96 % 12.7 mm 7 W/m2
21:20 -8.2 °C -8.5 °C 34347.6 hPa West 10.3 km/h 33.6 km/h 96 % 12.7 mm 7 W/m2
21:25 -8.2 °C -8.5 °C 34347.6 hPa NW 18.2 km/h 33.6 km/h 96 % 12.7 mm 5 W/m2
21:30 -8.2 °C -8.5 °C 34347.6 hPa West 18.2 km/h 31.1 km/h 96 % 12.7 mm 0 W/m2
21:35 -8.2 °C -8.6 °C 34361.1 hPa WNW 15.6 km/h 31.1 km/h 96 % 7.62 mm 0 W/m2
21:40 -8.2 °C -8.6 °C 34361.1 hPa WNW 7.7 km/h 31.1 km/h 96 % 7.62 mm 0 W/m2
21:45 -8.2 °C -8.4 °C 34361.1 hPa NW 25.9 km/h 28.5 km/h 97 % 7.62 mm 0 W/m2
21:50 -8.2 °C -8.6 °C 34361.1 hPa NNW 12.9 km/h 33.6 km/h 96 % 7.62 mm 0 W/m2
21:55 -8.2 °C -8.6 °C 34361.1 hPa WNW 15.6 km/h 33.6 km/h 96 % 7.62 mm 0 W/m2
22:00 -8.3 °C -8.6 °C 34361.1 hPa West 7.7 km/h 25.9 km/h 96 % 7.62 mm 0 W/m2
22:05 -8.3 °C -8.6 °C 34361.1 hPa NNW 10.3 km/h 25.9 km/h 96 % 0 mm 0 W/m2
22:10 -8.3 °C -8.6 °C 34361.1 hPa WNW 5.1 km/h 20.8 km/h 97 % 0 mm 0 W/m2
22:15 -8.3 °C -8.6 °C 34361.1 hPa WNW 10.3 km/h 23.3 km/h 97 % 0 mm 0 W/m2
22:20 -8.4 °C -8.6 °C 34371.3 hPa NW 10.3 km/h 23.3 km/h 97 % 0 mm 0 W/m2
22:25 -8.4 °C -8.6 °C 34361.1 hPa NW 15.6 km/h 23.3 km/h 97 % 0 mm 0 W/m2
22:30 -8.4 °C -8.6 °C 34371.3 hPa NW 20.8 km/h 23.3 km/h 97 % 0 mm 0 W/m2
22:35 -8.3 °C -8.6 °C 34371.3 hPa WNW 7.7 km/h 23.3 km/h 97 % 7.62 mm 0 W/m2
22:40 -8.4 °C -8.6 °C 34371.3 hPa NW 15.6 km/h 20.8 km/h 97 % 12.7 mm 0 W/m2
22:45 -8.4 °C -8.6 °C 34371.3 hPa NNW 5.1 km/h 18.2 km/h 97 % 12.7 mm 0 W/m2
22:50 -8.4 °C -8.7 °C 34371.3 hPa Calm   15.6 km/h 97 % 12.7 mm 0 W/m2
22:55 -8.4 °C -8.7 °C 34371.3 hPa West 2.6 km/h 15.6 km/h 97 % 12.7 mm 0 W/m2
23:00 -8.4 °C -8.7 °C 34371.3 hPa WNW 5.1 km/h 18.2 km/h 97 % 12.7 mm 0 W/m2
23:05 -8.4 °C -8.6 °C 34371.3 hPa NW 7.7 km/h 18.2 km/h 97 % 12.7 mm 0 W/m2
23:10 -8.4 °C -8.7 °C 34371.3 hPa Calm   18.2 km/h 97 % 12.7 mm 0 W/m2
23:15 -8.4 °C -8.7 °C 34371.3 hPa NNW 15.6 km/h 18.2 km/h 97 % 12.7 mm 0 W/m2
23:20 -8.4 °C -8.7 °C 34371.3 hPa North 2.6 km/h 15.6 km/h 97 % 12.7 mm 0 W/m2
23:25 -8.4 °C -8.7 °C 34371.3 hPa North 2.6 km/h 15.6 km/h 97 % 12.7 mm 0 W/m2
23:30 -8.4 °C -8.7 °C 34371.3 hPa NNW 2.6 km/h 20.8 km/h 97 % 12.7 mm 0 W/m2
23:35 -8.5 °C -8.8 °C 34371.3 hPa Calm   20.8 km/h 97 % 12.7 mm 0 W/m2
23:40 -8.6 °C -8.8 °C 34371.3 hPa Calm   7.7 km/h 97 % 7.62 mm 0 W/m2
23:45 -8.6 °C -8.8 °C 34371.3 hPa Calm   7.7 km/h 97 % 7.62 mm 0 W/m2
23:50 -8.6 °C -8.8 °C 34371.3 hPa Calm   2.6 km/h 97 % 7.62 mm 0 W/m2
23:55 -8.6 °C -8.8 °C 34371.3 hPa Calm     97 % 7.62 mm 0 W/m2
Avec l'autorisation de Weather Underground - 1.75 mb